Weather observations for the past three days for
Wall Blake Airport
Imperial (Metric)
Date Time (ast) Wind (mph) Vis. (mi.) Weather Sky Cond. Temperature (ºF) Relative Humidity Wind Chill (°F) Heat Index (°F) Pressure Precipitation (in)
Air Dwpt 6 hour altimeter (in) sea level (mb) 1 hr 3 hr 6 hr
Max. Min.
01 19:00 E 7 0.00 A Few Clouds FEW018 84.2 75.2 74% 92 0 0.0
01 18:00 E 12 0.00 Partly Cloudy SCT018 84.2 77 79% 94 0 0.0
01 17:00 E 10 0.00 Partly Cloudy SCT018 86 77 75% 97 0 0.0
01 16:00 NE 12 0.00 Partly Cloudy SCT018 86 77 75% 97 0 0.0
01 15:00 E 13 0.00 Partly Cloudy SCT020 86 75.2 70% 95 0 0.0
01 14:00 E 13 0.00 Partly Cloudy SCT019 86 77 75% 97 0 0.0
01 13:00 E 14 0.00 Partly Cloudy SCT018 86 77 75% 97 0 0.0
01 12:00 E 14 0.00 Partly Cloudy FEW019 SCT036 86 77 75% 97 0 0.0
01 11:00 E 14 0.00 Partly Cloudy FEW018 SCT036 86 77 75% 97 0 0.0
01 10:00 E 15 0.00 Mostly Cloudy FEW019 BKN036 86 77 75% 97 0 0.0
01 09:00 E 14 0.00 Mostly Cloudy FEW019 BKN036 84.2 75.2 74% 92 0 0.0
01 08:00 E 10 0.00 Mostly Cloudy FEW018 BKN036 82.4 77 84% 91 0 0.0
01 07:00 E 8 0.00 Mostly Cloudy FEW018 BKN036 82.4 77 84% 91 0 0.0
31 19:00 E 14 0.00 Mostly Cloudy FEW017 BKN036 82.4 75.2 79% 89 0 0.0
31 18:00 E 15 0.00 Partly Cloudy FEW016 SCT036 82.4 77 84% 91 0 0.0
31 17:00 E 15 0.00 Partly Cloudy FEW015 SCT036 82.4 77 84% 91 0 0.0
31 16:00 E 14 0.00 Partly Cloudy FEW015 SCT036 82.4 77 84% 91 0 0.0
31 15:00 E 14 0.00 Mostly Cloudy FEW018 BKN036 82.4 77 84% 91 0 0.0
31 14:00 E 14 0.00 Light Showers Rain FEW016 BKN032 82.4 75.2 79% 89 0 0.0
31 13:00 E 14 0.00 Mostly Cloudy FEW018 BKN033 82.4 75.2 79% 89 0 0.0
31 12:00 E 16 0.00 Mostly Cloudy FEW017 BKN034 82.4 73.4 74% 88 0 0.0
31 11:00 SE 16 0.00 Mostly Cloudy FEW016 BKN034 82.4 75.2 79% 89 0 0.0
31 10:00 SE 13 0.00 Showers in Vicinity FEW017 BKN033 82.4 77 84% 91 0 0.0
31 09:00 SE 16 0.00 Mostly Cloudy BKN018 82.4 75.2 79% 89 0 0.0
31 08:00 E 15 0.00 Partly Cloudy FEW012CB FEW017TCU SCT034 84.2 75.2 74% 92 0 0.0
31 07:00 E 14 0.00 Partly Cloudy FEW017 SCT034 82.4 75.2 79% 89 0 0.0
30 19:00 E 24 0.00 Thunderstorm Rain and Breezy FEW012CB BKN033 77 75.2 94% 78 0 0.0
30 18:19 SE 15 0.00 Thunderstorm Light Rain FEW012CB SCT015 BKN033 78.8 75.2 89% 82 0 0.0
30 18:00 E 17 0.00 Partly Cloudy SCT018 SCT035 82.4 77 84% 91 0 0.0
30 17:00 E 16 0.00 Partly Cloudy SCT018 84.2 78.8 84% 96 0 0.0
30 16:00 E 16 0.00 Partly Cloudy SCT017 84.2 77 79% 94 0 0.0
30 15:00 E 18 0.00 Partly Cloudy SCT017 86 77 75% 97 0 0.0
30 14:00 E 17 0.00 A Few Clouds FEW017 86 77 75% 97 0 0.0
30 13:00 SE 15 0.00 Partly Cloudy FEW017 SCT035 86 78.8 79% 99 0 0.0
30 12:00 SE 20 0.00 A Few Clouds FEW018 84.2 77 79% 94 0 0.0
30 11:00 SE 12 0.00 Partly Cloudy SCT018 SCT035 82.4 77 84% 91 0 0.0
30 10:00 S 6 0.00 Partly Cloudy FEW018 SCT034 80.6 75.2 84% 86 0 0.0
30 09:00 SE 20 0.00 Light Showers Rain FEW012CB SCT017 BKN033 80.6 77 89% 87 0 0.0
30 08:00 SE 28 G 40 0.00 Thunderstorm Heavy Rain and Windy SCT012CB BKN032 77 75.2 94% 78 0 0.0
30 07:10 SE 14 0.00 Thunderstorm FEW012CB FEW017 BKN034 80.6 77 89% 87 0 0.0
30 07:00 SE 15 0.00 Light Showers Rain FEW017 BKN034 80.6 77 89% 87 0 0.0
Date Time (ast) Wind (mph) Vis. (mi.) Weather Sky Cond. Air Dwpt Max. Min. Relative Humidity Wind Chill (°F) Heat Index (°F) altimeter (in) sea level (mb) 1 hr 3 hr 6 hr
6 hour
Temperature (ºF) Pressure Precipitation (in)